createdAt,value
2023-01-10T00:00:50.154Z,5.65
2023-01-10T00:01:50.094Z,5.59
2023-01-10T00:02:50.155Z,5.58
2023-01-10T00:03:50.086Z,5.63
2023-01-10T00:04:50.124Z,5.62
2023-01-10T00:05:50.075Z,5.70
2023-01-10T00:06:50.080Z,5.67
2023-01-10T00:07:50.099Z,5.58
2023-01-10T00:08:50.050Z,5.32
2023-01-10T00:09:50.031Z,5.48
2023-01-10T00:10:50.025Z,5.47
2023-01-10T00:11:50.018Z,5.44
2023-01-10T00:12:50.003Z,5.52
2023-01-10T00:13:49.986Z,5.58
2023-01-10T00:14:49.985Z,5.56
2023-01-10T00:15:50.028Z,5.59
2023-01-10T00:16:49.990Z,5.59
2023-01-10T00:17:49.952Z,5.51
2023-01-10T00:18:49.979Z,5.48
2023-01-10T00:19:49.948Z,5.42
2023-01-10T00:20:49.962Z,5.38
2023-01-10T00:21:49.916Z,5.40
2023-01-10T00:22:49.908Z,5.37
2023-01-10T00:23:49.896Z,5.35
2023-01-10T00:24:49.887Z,5.26
2023-01-10T00:25:49.891Z,5.37
2023-01-10T00:26:49.872Z,5.29
2023-01-10T00:27:49.866Z,5.40
2023-01-10T00:28:49.854Z,5.45
2023-01-10T00:29:49.840Z,5.48
2023-01-10T00:30:49.870Z,5.47
2023-01-10T00:31:49.828Z,5.48
2023-01-10T00:32:49.818Z,5.52
2023-01-10T00:33:49.812Z,5.49
2023-01-10T00:34:49.803Z,5.37
2023-01-10T00:35:49.802Z,5.45
2023-01-10T00:36:49.784Z,5.44
2023-01-10T00:37:49.774Z,5.38
2023-01-10T00:38:49.768Z,5.32
2023-01-10T00:39:49.758Z,5.35
2023-01-10T00:40:49.856Z,5.42
2023-01-10T00:41:49.739Z,5.33
2023-01-10T00:42:49.732Z,5.32
2023-01-10T00:43:49.724Z,5.30
2023-01-10T00:44:49.712Z,5.40
2023-01-10T00:45:49.795Z,5.37
2023-01-10T00:46:49.699Z,5.41
2023-01-10T00:47:49.688Z,5.38
2023-01-10T00:48:49.692Z,5.44
2023-01-10T00:49:49.675Z,5.35
2023-01-10T00:50:49.669Z,5.37
2023-01-10T00:51:49.654Z,5.37
2023-01-10T00:52:49.643Z,5.45
2023-01-10T00:53:49.643Z,5.48
2023-01-10T00:54:49.629Z,5.49
2023-01-10T00:55:49.631Z,5.45
2023-01-10T00:56:49.607Z,5.44
2023-01-10T00:57:49.601Z,5.47
2023-01-10T00:58:49.585Z,5.42
2023-01-10T00:59:49.583Z,5.55
2023-01-10T01:00:49.935Z,5.58
2023-01-10T01:01:49.699Z,5.58
2023-01-10T01:02:49.577Z,5.56
2023-01-10T01:03:49.547Z,5.56
2023-01-10T01:04:49.543Z,5.60
2023-01-10T01:05:49.546Z,5.62
2023-01-10T01:06:49.523Z,5.62
2023-01-10T01:07:49.513Z,5.63
2023-01-10T01:08:49.505Z,5.58
2023-01-10T01:09:49.512Z,5.73
2023-01-10T01:10:49.503Z,5.81
2023-01-10T01:11:49.500Z,5.74
2023-01-10T01:12:49.473Z,5.80
2023-01-10T01:13:49.463Z,5.78
2023-01-10T01:14:49.461Z,5.84
2023-01-10T01:15:49.564Z,5.69
2023-01-10T01:16:49.443Z,5.77
2023-01-10T01:17:49.465Z,5.69
2023-01-10T01:18:49.421Z,5.77
2023-01-10T01:19:49.417Z,5.74
2023-01-10T01:20:49.419Z,5.65
2023-01-10T01:21:49.398Z,5.70
2023-01-10T01:22:49.386Z,5.77
2023-01-10T01:23:49.375Z,5.62
2023-01-10T01:24:49.369Z,5.62
2023-01-10T01:25:49.359Z,5.49
2023-01-10T01:26:49.364Z,5.73
2023-01-10T01:27:49.341Z,5.67
2023-01-10T01:28:49.331Z,5.74
2023-01-10T01:29:49.332Z,5.65
2023-01-10T01:30:49.361Z,5.74
2023-01-10T01:31:49.317Z,5.70
2023-01-10T01:32:49.293Z,5.78
2023-01-10T01:33:49.295Z,5.75
2023-01-10T01:34:49.276Z,5.75
2023-01-10T01:35:49.285Z,5.75
2023-01-10T01:36:49.273Z,5.81
2023-01-10T01:37:49.260Z,5.70
2023-01-10T01:38:49.244Z,5.73
2023-01-10T01:39:49.239Z,5.73
2023-01-10T01:40:49.230Z,5.62
2023-01-10T01:41:49.241Z,5.65
2023-01-10T01:42:49.210Z,5.81
2023-01-10T01:43:49.198Z,5.80
2023-01-10T01:44:50.224Z,5.70
2023-01-10T01:45:49.191Z,5.75
2023-01-10T01:46:49.189Z,5.74
2023-01-10T01:47:49.172Z,5.87
2023-01-10T01:48:49.160Z,5.74
2023-01-10T01:49:49.153Z,5.84
2023-01-10T01:50:49.148Z,5.75
2023-01-10T01:51:49.172Z,5.74
2023-01-10T01:52:49.129Z,5.62
2023-01-10T01:53:49.117Z,5.65
2023-01-10T01:54:49.110Z,5.63
2023-01-10T01:55:49.095Z,5.63
2023-01-10T01:56:49.101Z,5.62
2023-01-10T01:57:49.089Z,5.75
2023-01-10T01:58:49.091Z,5.77
2023-01-10T01:59:49.059Z,5.66
2023-01-10T02:00:49.061Z,5.73
2023-01-10T02:01:49.070Z,5.65
2023-01-10T02:03:01.739Z,5.45
2023-01-10T02:03:51.111Z,5.56
2023-01-10T02:04:49.024Z,5.47
2023-01-10T02:05:49.007Z,5.44
2023-01-10T02:06:49.014Z,5.44
2023-01-10T02:07:48.987Z,5.27
2023-01-10T02:08:48.984Z,5.19
2023-01-10T02:09:48.976Z,5.19
2023-01-10T02:10:48.995Z,5.15
2023-01-10T02:11:48.965Z,5.15
2023-01-10T02:12:48.956Z,5.04
2023-01-10T02:13:48.952Z,5.04
2023-01-10T02:14:48.939Z,5.12
2023-01-10T02:15:48.942Z,5.14
2023-01-10T02:16:48.944Z,5.12
2023-01-10T02:17:48.906Z,5.15
2023-01-10T02:18:48.917Z,5.09
2023-01-10T02:19:48.888Z,5.02
2023-01-10T02:20:48.878Z,5.09
2023-01-10T02:21:48.905Z,5.04
2023-01-10T02:22:48.884Z,4.97
2023-01-10T02:23:48.856Z,4.93
2023-01-10T02:24:48.876Z,4.96
2023-01-10T02:25:48.881Z,5.04
2023-01-10T02:26:48.844Z,5.01
2023-01-10T02:27:48.829Z,5.11
2023-01-10T02:28:48.834Z,5.08
2023-01-10T02:29:48.797Z,5.08
2023-01-10T02:30:48.801Z,5.11
2023-01-10T02:31:48.794Z,5.11
2023-01-10T02:33:04.073Z,5.15
2023-01-10T02:33:50.770Z,5.11
2023-01-10T02:34:48.769Z,5.32
2023-01-10T02:35:48.752Z,5.24
2023-01-10T02:36:48.755Z,5.32
2023-01-10T02:37:48.729Z,5.22
2023-01-10T02:38:48.729Z,5.24
2023-01-10T02:39:48.720Z,5.32
2023-01-10T02:40:48.708Z,5.30
2023-01-10T02:41:48.711Z,5.33
2023-01-10T02:42:48.688Z,5.14
2023-01-10T02:43:48.688Z,5.22
2023-01-10T02:44:48.705Z,5.44
2023-01-10T02:45:48.668Z,5.37
2023-01-10T02:46:48.785Z,5.42
2023-01-10T02:47:48.653Z,5.35
2023-01-10T02:48:48.640Z,5.42
2023-01-10T02:49:48.632Z,5.47
2023-01-10T02:50:48.637Z,5.48
2023-01-10T02:51:48.630Z,5.35
2023-01-10T02:52:48.621Z,5.40
2023-01-10T02:53:48.605Z,5.27
2023-01-10T02:54:48.588Z,5.20
2023-01-10T02:55:48.577Z,5.30
2023-01-10T02:56:49.582Z,5.26
2023-01-10T02:57:48.564Z,5.32
2023-01-10T02:58:48.571Z,5.38
2023-01-10T02:59:48.553Z,5.47
2023-01-10T03:00:48.560Z,5.45
2023-01-10T03:01:48.571Z,5.37
2023-01-10T03:02:48.518Z,5.30
2023-01-10T03:03:48.514Z,5.26
2023-01-10T03:24:07.730Z,4.71
2023-01-10T03:24:53.388Z,4.61
2023-01-10T03:25:53.380Z,4.72
2023-01-10T03:26:53.380Z,4.71
2023-01-10T03:27:53.371Z,4.62
2023-01-10T03:28:53.356Z,4.68
2023-01-10T03:29:53.338Z,4.67
2023-01-10T03:30:53.332Z,4.59
2023-01-10T03:31:53.335Z,4.62
2023-01-10T03:32:53.315Z,4.65
2023-01-10T03:33:53.309Z,4.62
2023-01-10T03:34:54.404Z,4.62
2023-01-10T03:35:54.401Z,4.61
2023-01-10T03:36:54.404Z,4.54
2023-01-10T03:37:54.395Z,4.56
2023-01-10T03:38:54.372Z,4.53
2023-01-10T03:39:54.367Z,4.59
2023-01-10T03:40:54.358Z,4.53
2023-01-10T03:41:54.362Z,4.64
2023-01-10T03:42:54.333Z,4.50
2023-01-10T03:43:54.329Z,4.54
2023-01-10T03:44:54.317Z,4.56
2023-01-10T03:45:54.313Z,4.54
2023-01-10T03:46:54.357Z,4.54
2023-01-10T03:47:54.293Z,4.59
2023-01-10T03:48:54.282Z,4.51
2023-01-10T03:49:54.273Z,4.57
2023-01-10T03:50:54.265Z,4.61
2023-01-10T03:51:54.266Z,4.72
2023-01-10T03:52:54.242Z,4.71
2023-01-10T03:53:54.236Z,4.68
2023-01-10T03:54:54.218Z,4.67
2023-01-10T03:55:54.227Z,4.65
2023-01-10T03:56:54.222Z,4.59
2023-01-10T03:57:54.245Z,4.69
2023-01-10T03:58:54.193Z,4.65
2023-01-10T03:59:54.212Z,4.57
2023-01-10T04:00:54.252Z,4.67
2023-01-10T04:01:54.239Z,4.61
2023-01-10T04:02:54.165Z,4.61
2023-01-10T04:03:54.163Z,4.59
2023-01-10T04:04:54.141Z,4.62
2023-01-10T04:05:54.130Z,4.74
2023-01-10T04:06:54.141Z,4.74
2023-01-10T04:07:54.115Z,4.68
2023-01-10T04:08:54.104Z,4.79
2023-01-10T04:09:54.098Z,4.83
2023-01-10T04:10:54.099Z,4.80
2023-01-10T04:11:54.081Z,4.84
2023-01-10T04:12:54.078Z,4.93
2023-01-10T04:13:54.069Z,4.90
2023-01-10T04:14:54.084Z,4.96
2023-01-10T04:15:54.058Z,4.99
2023-01-10T04:16:54.042Z,5.01
2023-01-10T04:17:54.038Z,4.86
2023-01-10T04:18:54.021Z,4.99
2023-01-10T04:19:54.012Z,4.97
2023-01-10T04:20:54.003Z,4.91
2023-01-10T04:21:54.004Z,5.02
2023-01-10T04:22:54.007Z,5.01
2023-01-10T04:23:53.974Z,4.93
2023-01-10T04:24:53.968Z,4.96
2023-01-10T04:25:53.959Z,4.94
2023-01-10T04:26:53.949Z,4.87
2023-01-10T04:27:53.972Z,4.88
2023-01-10T04:28:53.982Z,4.90
2023-01-10T04:29:53.922Z,4.83
2023-01-10T04:30:53.917Z,4.84
2023-01-10T04:31:53.958Z,4.83
2023-01-10T04:32:53.909Z,4.86
2023-01-10T04:33:53.894Z,4.86
2023-01-10T04:34:53.899Z,4.87
2023-01-10T04:35:53.867Z,4.84
2023-01-10T04:36:53.867Z,4.67
2023-01-10T04:37:53.881Z,4.54
2023-01-10T04:38:53.846Z,4.62
2023-01-10T04:39:53.831Z,4.64
2023-01-10T04:40:53.828Z,4.67
2023-01-10T04:41:53.822Z,4.69
2023-01-10T04:42:53.829Z,4.72
2023-01-10T04:43:53.798Z,4.71
2023-01-10T04:44:53.790Z,4.75
2023-01-10T04:45:53.835Z,4.75
2023-01-10T04:46:53.773Z,4.84
2023-01-10T04:47:53.778Z,4.83
2023-01-10T04:48:53.760Z,4.79
2023-01-10T04:49:53.760Z,4.77
2023-01-10T04:50:53.746Z,4.80
2023-01-10T04:51:53.737Z,4.86
2023-01-10T04:52:53.738Z,4.84
2023-01-10T04:53:53.713Z,4.86
2023-01-10T04:54:53.704Z,4.90
2023-01-10T04:56:25.603Z,4.86
2023-01-10T04:56:53.692Z,4.86
2023-01-10T04:57:53.699Z,4.75
2023-01-10T04:58:54.208Z,4.79
2023-01-10T04:59:54.660Z,4.83
2023-01-10T05:00:53.752Z,4.79
2023-01-10T05:01:53.812Z,4.87
2023-01-10T05:02:53.795Z,4.88
2023-01-10T05:03:54.637Z,4.96
2023-01-10T05:04:53.635Z,4.96
2023-01-10T05:05:53.611Z,5.01
2023-01-10T05:06:53.610Z,5.02
2023-01-10T05:07:53.627Z,4.94
2023-01-10T05:08:53.634Z,5.02
2023-01-10T05:09:53.601Z,4.93
2023-01-10T05:10:53.568Z,4.97
2023-01-10T05:11:53.564Z,4.94
2023-01-10T05:12:53.597Z,4.97
2023-01-10T05:13:53.567Z,4.93
2023-01-10T05:14:53.537Z,4.94
2023-01-10T05:15:53.521Z,4.94
2023-01-10T05:16:53.554Z,4.88
2023-01-10T05:17:53.530Z,4.91
2023-01-10T05:18:53.513Z,4.87
2023-01-10T05:19:53.495Z,4.90
2023-01-10T05:20:53.484Z,4.91
2023-01-10T05:21:53.483Z,4.79
2023-01-10T05:22:53.476Z,4.77
2023-01-10T05:23:53.465Z,4.71
2023-01-10T05:24:54.709Z,4.68
2023-01-10T05:25:54.441Z,4.62
2023-01-10T05:26:53.432Z,4.65
2023-01-10T05:27:53.436Z,4.64
2023-01-10T05:28:53.419Z,4.56
2023-01-10T05:29:53.408Z,4.59
2023-01-10T05:30:53.397Z,4.51
2023-01-10T05:31:53.452Z,4.59
2023-01-10T05:32:53.393Z,4.57
2023-01-10T05:33:53.373Z,4.56
2023-01-10T05:34:53.367Z,4.54
2023-01-10T05:35:53.357Z,4.59
2023-01-10T05:36:53.350Z,4.43
2023-01-10T05:37:53.352Z,4.51
2023-01-10T05:38:53.339Z,4.53
2023-01-10T05:39:53.329Z,4.56
2023-01-10T05:40:53.318Z,4.54
2023-01-10T05:41:53.315Z,4.59
2023-01-10T05:42:53.311Z,4.51
2023-01-10T05:43:53.320Z,4.51
2023-01-10T05:44:53.287Z,4.59
2023-01-10T05:45:53.287Z,4.65
2023-01-10T05:46:53.270Z,4.62
2023-01-10T05:47:53.287Z,4.61
2023-01-10T05:48:53.266Z,4.53
2023-01-10T05:49:53.241Z,4.59
2023-01-10T05:50:53.231Z,4.59
2023-01-10T05:51:53.225Z,4.51
2023-01-10T05:52:53.235Z,4.61
2023-01-10T05:53:53.201Z,4.54
2023-01-10T05:54:53.191Z,4.62
2023-01-10T05:55:53.188Z,4.61
2023-01-10T05:56:53.191Z,4.56
2023-01-10T05:57:53.167Z,4.68
2023-01-10T05:59:00.597Z,4.64
2023-01-10T05:59:55.149Z,4.59
2023-01-10T06:00:53.162Z,4.50
2023-01-10T06:01:53.153Z,4.51
2023-01-10T06:02:53.263Z,4.39
2023-01-10T06:03:53.142Z,4.38
2023-01-10T06:04:53.113Z,4.32
2023-01-10T06:05:53.120Z,4.36
2023-01-10T06:06:53.106Z,4.32
2023-01-10T06:07:53.085Z,4.42
2023-01-10T06:08:53.092Z,4.35
2023-01-10T06:09:53.062Z,4.39
2023-01-10T06:10:53.052Z,4.47
2023-01-10T06:11:53.046Z,4.46
2023-01-10T06:12:53.138Z,4.51
2023-01-10T06:13:53.049Z,4.50
2023-01-10T06:14:53.039Z,4.47
2023-01-10T06:15:53.022Z,4.50
2023-01-10T06:16:53.001Z,4.56
2023-01-10T06:17:53.012Z,4.59
2023-01-10T06:18:52.997Z,4.61
2023-01-10T06:19:52.978Z,4.65
2023-01-10T06:20:52.965Z,4.64
2023-01-10T06:21:52.961Z,4.69
2023-01-10T06:22:52.949Z,4.69
2023-01-10T06:23:52.951Z,4.75
2023-01-10T06:24:52.935Z,4.72
2023-01-10T06:25:52.933Z,4.71
2023-01-10T06:26:52.915Z,4.72
2023-01-10T06:27:52.906Z,4.74
2023-01-10T06:28:52.911Z,4.71
2023-01-10T06:29:52.886Z,4.77
2023-01-10T06:30:52.910Z,4.80
2023-01-10T06:31:52.868Z,4.83
2023-01-10T06:32:52.854Z,4.80
2023-01-10T06:33:52.866Z,4.86
2023-01-10T06:34:52.834Z,4.86
2023-01-10T06:35:52.830Z,4.75
2023-01-10T06:36:52.825Z,4.69
2023-01-10T06:37:52.839Z,4.71
2023-01-10T06:38:52.808Z,4.75
2023-01-10T06:39:52.801Z,4.72
2023-01-10T06:40:52.785Z,4.67
2023-01-10T06:41:52.782Z,4.71
2023-01-10T06:42:52.764Z,4.84
2023-01-10T06:43:52.768Z,4.84
2023-01-10T06:44:52.742Z,4.77
2023-01-10T06:45:52.787Z,4.77
2023-01-10T06:46:52.731Z,4.62
2023-01-10T06:47:52.716Z,4.69
2023-01-10T06:48:52.718Z,4.77
2023-01-10T06:49:52.701Z,4.71
2023-01-10T06:50:52.688Z,4.80
2023-01-10T06:51:52.682Z,4.84
2023-01-10T06:52:52.673Z,4.86
2023-01-10T06:53:52.674Z,4.86
2023-01-10T06:54:52.649Z,4.79
2023-01-10T06:55:52.649Z,4.77
2023-01-10T06:56:52.634Z,4.83
2023-01-10T06:57:52.632Z,4.77
2023-01-10T06:58:52.617Z,4.77
2023-01-10T06:59:53.610Z,4.80
2023-01-10T07:00:52.663Z,4.74
2023-01-10T07:01:52.662Z,4.69
2023-01-10T07:02:52.589Z,4.72
2023-01-10T07:03:52.753Z,4.61
2023-01-10T07:04:52.559Z,4.68
2023-01-10T07:05:52.546Z,4.74
2023-01-10T07:06:52.537Z,4.83
2023-01-10T07:07:52.535Z,4.77
2023-01-10T07:08:52.548Z,4.74
2023-01-10T07:09:52.522Z,4.88
2023-01-10T07:10:52.517Z,4.84
2023-01-10T07:11:52.496Z,4.87
2023-01-10T07:12:52.496Z,4.96
2023-01-10T07:13:52.489Z,4.91
2023-01-10T07:14:52.464Z,4.99
2023-01-10T07:15:52.484Z,4.97
2023-01-10T07:16:52.452Z,4.97
2023-01-10T07:17:52.440Z,4.99
2023-01-10T07:18:52.452Z,4.90
2023-01-10T07:19:52.428Z,4.99
2023-01-10T07:20:52.436Z,4.94
2023-01-10T07:21:52.403Z,4.96
2023-01-10T07:22:52.391Z,5.02
2023-01-10T07:23:52.395Z,5.01
2023-01-10T07:24:52.370Z,5.02
2023-01-10T07:25:52.360Z,5.09
2023-01-10T07:26:52.356Z,5.09
2023-01-10T07:27:52.373Z,5.14
2023-01-10T07:28:52.367Z,5.01
2023-01-10T07:29:52.329Z,5.08
2023-01-10T07:30:52.329Z,5.19
2023-01-10T07:31:52.320Z,5.12
2023-01-10T07:32:52.301Z,5.05
2023-01-10T07:33:52.341Z,5.12
2023-01-10T07:34:52.285Z,5.06
2023-01-10T07:35:52.282Z,5.15
2023-01-10T07:36:52.283Z,5.11
2023-01-10T07:37:52.263Z,5.08
2023-01-10T07:38:52.270Z,5.01
2023-01-10T07:39:52.259Z,5.02
2023-01-10T07:40:52.228Z,5.19
2023-01-10T07:41:52.224Z,5.14
2023-01-10T07:42:52.201Z,5.09
2023-01-10T07:43:53.215Z,5.08
2023-01-10T07:44:52.194Z,5.09
2023-01-10T07:45:52.219Z,5.05
2023-01-10T07:46:52.187Z,5.04
2023-01-10T07:47:52.167Z,5.01
2023-01-10T07:48:52.175Z,5.01
2023-01-10T07:49:52.147Z,4.94
2023-01-10T07:50:52.133Z,4.99
2023-01-10T07:51:52.136Z,4.97
2023-01-10T07:52:52.129Z,5.04
2023-01-10T07:53:52.123Z,5.09
2023-01-10T07:54:52.107Z,5.15
2023-01-10T07:55:52.095Z,5.08
2023-01-10T07:56:52.084Z,5.09
2023-01-10T07:57:52.078Z,5.01
2023-01-10T07:58:52.069Z,5.12
2023-01-10T07:59:52.057Z,4.97
2023-01-10T08:00:52.148Z,5.12
2023-01-10T08:01:52.042Z,5.11
2023-01-10T08:02:52.087Z,4.97
2023-01-10T08:03:52.088Z,4.97
2023-01-10T08:04:52.007Z,5.09
2023-01-10T08:05:51.998Z,5.05
2023-01-10T08:06:52.016Z,4.90
2023-01-10T08:07:51.980Z,5.05
2023-01-10T08:08:51.983Z,5.08
2023-01-10T08:09:51.963Z,5.06
2023-01-10T08:10:51.954Z,5.09
2023-01-10T08:11:51.939Z,5.11
2023-01-10T08:12:51.931Z,5.11
2023-01-10T08:13:51.936Z,5.14
2023-01-10T08:14:51.929Z,4.97
2023-01-10T08:15:52.085Z,5.04
2023-01-10T08:16:51.898Z,4.96
2023-01-10T08:17:51.878Z,5.06
2023-01-10T08:18:51.886Z,5.14
2023-01-10T08:19:51.874Z,5.12
2023-01-10T08:20:51.852Z,5.14
2023-01-10T08:21:51.849Z,5.08
2023-01-10T08:22:51.841Z,5.09
2023-01-10T08:23:51.836Z,5.22
2023-01-10T08:24:51.831Z,5.30
2023-01-10T08:25:51.829Z,5.29
2023-01-10T08:26:51.799Z,5.29
2023-01-10T08:27:51.781Z,5.27
2023-01-10T08:28:51.787Z,5.44
2023-01-10T08:29:51.795Z,5.38
2023-01-10T08:30:51.775Z,5.35
2023-01-10T08:31:51.744Z,5.29
2023-01-10T08:32:51.744Z,5.24
2023-01-10T08:33:51.741Z,5.30
2023-01-10T08:34:51.725Z,5.37
2023-01-10T08:35:51.719Z,5.42
2023-01-10T08:36:51.708Z,5.47
2023-01-10T08:37:51.741Z,5.48
2023-01-10T08:38:51.714Z,5.47
2023-01-10T08:39:51.672Z,5.37
2023-01-10T08:40:51.684Z,5.35
2023-01-10T08:41:51.652Z,5.42
2023-01-10T08:42:51.649Z,5.44
2023-01-10T08:43:51.653Z,5.35
2023-01-10T08:44:51.636Z,5.42
2023-01-10T08:45:51.625Z,5.41
2023-01-10T08:46:51.677Z,5.44
2023-01-10T08:47:51.603Z,5.52
2023-01-10T08:48:51.612Z,5.56
2023-01-10T08:49:51.599Z,5.62
2023-01-10T08:50:51.590Z,5.80
2023-01-10T08:51:51.575Z,5.85
2023-01-10T08:52:51.562Z,5.87
2023-01-10T08:53:51.574Z,5.84
2023-01-10T08:54:51.560Z,5.77
2023-01-10T08:55:51.538Z,5.78
2023-01-10T08:56:51.524Z,5.87
2023-01-10T08:57:51.526Z,5.80
2023-01-10T08:58:51.519Z,6.16
2023-01-10T08:59:51.490Z,6.13
2023-01-10T09:00:51.534Z,5.96
2023-01-10T09:01:51.567Z,5.78
2023-01-10T09:02:51.498Z,5.80
2023-01-10T09:03:51.459Z,5.67
2023-01-10T09:04:51.470Z,5.63
2023-01-10T09:05:51.439Z,5.59
2023-01-10T09:06:51.442Z,5.44
2023-01-10T09:07:51.424Z,5.45
2023-01-10T09:08:51.409Z,5.32
2023-01-10T09:09:51.411Z,5.29
2023-01-10T09:10:51.386Z,5.26
2023-01-10T09:11:51.379Z,5.30
2023-01-10T09:12:51.393Z,5.30
2023-01-10T09:13:51.357Z,5.29
2023-01-10T09:14:51.373Z,5.40
2023-01-10T09:15:51.377Z,5.42
2023-01-10T09:16:51.328Z,5.29
2023-01-10T09:17:51.323Z,5.33
2023-01-10T09:18:51.306Z,5.35
2023-01-10T09:19:51.309Z,5.40
2023-01-10T09:20:51.297Z,5.32
2023-01-10T09:21:51.292Z,5.33
2023-01-10T09:22:51.285Z,5.42
2023-01-10T09:23:51.257Z,5.35
2023-01-10T09:24:51.264Z,5.42
2023-01-10T09:25:51.249Z,5.45
2023-01-10T09:26:51.237Z,5.52
2023-01-10T09:27:51.225Z,5.51
2023-01-10T09:28:51.263Z,5.60
2023-01-10T09:29:51.225Z,5.59
2023-01-10T09:30:51.196Z,5.60
2023-01-10T09:31:51.211Z,5.69
2023-01-10T09:32:51.186Z,5.65
2023-01-10T09:33:51.169Z,5.60
2023-01-10T09:34:51.178Z,5.74
2023-01-10T09:35:51.155Z,5.70
2023-01-10T09:36:52.147Z,5.80
2023-01-10T09:37:51.128Z,5.80
2023-01-10T09:38:51.121Z,5.80
2023-01-10T09:39:51.133Z,5.92
2023-01-10T09:40:51.124Z,5.90
2023-01-10T09:41:51.097Z,5.92
2023-01-10T09:42:51.092Z,5.92
2023-01-10T09:43:51.079Z,5.88
2023-01-10T09:44:51.082Z,5.90
2023-01-10T09:45:51.096Z,6.02
2023-01-10T09:46:51.063Z,6.48
2023-01-10T09:47:51.057Z,7.91
2023-01-10T09:48:51.030Z,9.08
2023-01-10T09:49:51.040Z,10.10
2023-01-10T09:50:51.005Z,11.21
2023-01-10T09:51:51.009Z,11.75
2023-01-10T09:52:51.021Z,11.19
2023-01-10T09:53:53.602Z,10.73
2023-01-10T09:54:51.991Z,10.13
2023-01-10T09:55:50.953Z,9.74
2023-01-10T09:56:50.966Z,9.42
2023-01-10T09:57:50.967Z,8.75
2023-01-10T09:58:50.954Z,8.37
2023-01-10T09:59:51.008Z,8.34
2023-01-10T10:00:50.972Z,8.00
2023-01-10T10:01:50.893Z,8.10
2023-01-10T10:02:50.900Z,7.96
2023-01-10T10:03:51.037Z,7.81
2023-01-10T10:04:50.875Z,7.67
2023-01-10T10:05:54.109Z,7.55
2023-01-10T10:06:51.852Z,7.48
2023-01-10T10:07:50.844Z,7.39
2023-01-10T10:08:50.826Z,7.34
2023-01-10T10:09:50.821Z,7.29
2023-01-10T10:10:50.799Z,7.15
2023-01-10T10:11:50.787Z,7.04
2023-01-10T10:12:50.777Z,7.07
2023-01-10T10:13:50.768Z,7.11
2023-01-10T10:14:50.768Z,8.73
2023-01-10T10:15:50.800Z,9.68
2023-01-10T10:16:50.737Z,9.52
2023-01-10T10:17:50.726Z,9.06
2023-01-10T10:18:50.717Z,8.67
2023-01-10T10:19:50.715Z,8.54
2023-01-10T10:20:50.692Z,8.34
2023-01-10T10:21:50.684Z,8.07
2023-01-10T10:22:50.702Z,8.03
2023-01-10T10:23:50.682Z,7.71
2023-01-10T10:24:50.665Z,7.48
2023-01-10T10:25:50.645Z,7.54
2023-01-10T10:26:50.634Z,7.39
2023-01-10T10:27:50.625Z,7.29
2023-01-10T10:28:55.093Z,7.23
2023-01-10T10:29:51.621Z,7.30
2023-01-10T10:30:50.599Z,7.15
2023-01-10T10:31:50.657Z,7.15
2023-01-10T10:32:50.587Z,7.07
2023-01-10T10:33:50.564Z,6.96
2023-01-10T10:34:50.563Z,7.04
2023-01-10T10:35:50.543Z,6.78
2023-01-10T10:36:50.528Z,6.83
2023-01-10T10:37:50.527Z,6.91
2023-01-10T10:38:50.510Z,6.83
2023-01-10T10:39:50.537Z,6.96
2023-01-10T10:40:50.542Z,6.96
2023-01-10T10:41:50.489Z,6.93
2023-01-10T10:42:50.475Z,6.99
2023-01-10T10:43:50.460Z,6.91
2023-01-10T10:44:50.467Z,6.97
2023-01-10T10:45:50.463Z,7.00
2023-01-10T10:46:50.434Z,6.91
2023-01-10T10:47:50.427Z,6.94
2023-01-10T10:48:50.418Z,6.83
2023-01-10T10:49:50.419Z,6.89
2023-01-10T10:50:50.394Z,6.93
2023-01-10T10:51:50.392Z,6.93
2023-01-10T10:52:50.378Z,6.90
2023-01-10T10:53:50.373Z,6.96
2023-01-10T10:54:50.372Z,6.91
2023-01-10T10:55:50.374Z,6.96
2023-01-10T10:56:50.344Z,7.00
2023-01-10T10:57:59.967Z,6.96
2023-01-10T10:58:52.324Z,6.91
2023-01-10T10:59:50.331Z,6.99
2023-01-10T11:00:50.348Z,6.93
2023-01-10T11:01:50.419Z,6.99
2023-01-10T11:02:50.297Z,6.94
2023-01-10T11:03:50.270Z,6.96
2023-01-10T11:04:50.323Z,6.99
2023-01-10T11:05:50.258Z,7.12
2023-01-10T11:06:50.243Z,7.07
2023-01-10T11:07:50.235Z,7.05
2023-01-10T11:08:50.230Z,7.24
2023-01-10T11:09:50.239Z,7.16
2023-01-10T11:10:50.219Z,7.16
2023-01-10T11:11:50.213Z,7.18
2023-01-10T11:12:50.191Z,7.16
2023-01-10T11:13:50.189Z,7.04
2023-01-10T11:14:50.209Z,7.04
2023-01-10T11:15:50.164Z,7.12
2023-01-10T11:16:50.188Z,7.08
2023-01-10T11:17:50.139Z,7.12
2023-01-10T11:18:50.130Z,7.12
2023-01-10T11:19:50.128Z,7.11
2023-01-10T11:20:50.114Z,7.14
2023-01-10T11:21:50.110Z,7.24
2023-01-10T11:22:50.102Z,7.19
2023-01-10T11:23:50.103Z,7.34
2023-01-10T11:24:50.093Z,7.24
2023-01-10T11:25:50.072Z,7.26
2023-01-10T11:26:50.061Z,7.19
2023-01-10T11:27:50.047Z,7.21
2023-01-10T11:28:50.037Z,7.07
2023-01-10T11:29:50.036Z,7.08
2023-01-10T11:30:50.011Z,7.14
2023-01-10T11:31:50.146Z,7.23
2023-01-10T11:32:50.999Z,7.19
2023-01-10T11:33:49.983Z,7.26
2023-01-10T11:34:49.990Z,7.14
2023-01-10T11:35:49.979Z,7.18
2023-01-10T11:36:49.966Z,7.11
2023-01-10T11:37:49.972Z,7.04
2023-01-10T11:38:49.954Z,7.00
2023-01-10T11:39:49.958Z,7.00
2023-01-10T11:40:49.931Z,7.09
2023-01-10T11:41:49.929Z,7.12
2023-01-10T11:42:49.916Z,7.09
2023-01-10T11:43:49.937Z,7.09
2023-01-10T11:44:49.886Z,6.97
2023-01-10T11:45:49.932Z,6.99
2023-01-10T11:46:49.861Z,7.01
2023-01-10T11:47:49.856Z,7.07
2023-01-10T11:49:05.751Z,6.99
2023-01-10T11:49:51.869Z,6.94
2023-01-10T11:50:49.836Z,6.94
2023-01-10T11:51:49.823Z,6.94
2023-01-10T11:52:49.808Z,6.96
2023-01-10T11:53:49.798Z,6.96
2023-01-10T11:54:49.786Z,6.97
2023-01-10T11:55:49.796Z,6.93
2023-01-10T11:56:49.767Z,6.86
2023-01-10T11:57:49.770Z,6.78
2023-01-10T11:58:49.762Z,6.71
2023-01-10T11:59:49.754Z,6.72
2023-01-10T12:00:49.734Z,6.61
2023-01-10T12:01:49.714Z,6.61
2023-01-10T12:02:49.704Z,6.65
2023-01-10T12:03:49.695Z,6.64
2023-01-10T12:04:49.708Z,6.65
2023-01-10T12:05:49.687Z,6.64
2023-01-10T12:06:49.664Z,6.55
2023-01-10T12:07:49.658Z,6.54
2023-01-10T12:08:49.680Z,6.60
2023-01-10T12:09:49.665Z,6.53
2023-01-10T12:10:49.636Z,6.51
2023-01-10T12:11:49.622Z,6.53
2023-01-10T12:12:49.599Z,6.54
2023-01-10T12:13:49.598Z,6.55
2023-01-10T12:14:49.585Z,6.53
2023-01-10T12:15:49.588Z,6.48
2023-01-10T12:16:49.655Z,6.55
2023-01-10T12:17:49.569Z,6.50
2023-01-10T12:18:49.548Z,6.48
2023-01-10T12:19:49.545Z,6.51
2023-01-10T12:20:49.535Z,6.51
2023-01-10T12:21:49.524Z,6.45
2023-01-10T12:22:49.528Z,6.50
2023-01-10T12:23:49.502Z,6.54
2023-01-10T12:24:49.500Z,6.50
2023-01-10T12:25:51.494Z,6.40
2023-01-10T12:26:49.478Z,6.42
2023-01-10T12:27:49.484Z,6.40
2023-01-10T12:28:49.468Z,6.33
2023-01-10T12:29:49.447Z,6.30
2023-01-10T12:30:49.508Z,6.21
2023-01-10T12:31:49.436Z,6.19
2023-01-10T12:32:49.440Z,6.14
2023-01-10T12:33:49.407Z,6.19
2023-01-10T12:34:49.401Z,6.08
2023-01-10T12:35:49.407Z,6.14
2023-01-10T12:36:49.399Z,6.03
2023-01-10T12:37:49.384Z,6.05
2023-01-10T12:38:49.358Z,6.16
2023-01-10T12:39:49.357Z,6.20
2023-01-10T12:40:49.344Z,6.10
2023-01-10T12:41:49.343Z,6.01
2023-01-10T12:42:49.343Z,6.03
2023-01-10T12:43:49.313Z,6.13
2023-01-10T12:44:49.303Z,6.02
2023-01-10T12:45:49.311Z,6.17
2023-01-10T12:47:05.660Z,6.13
2023-01-10T12:47:51.291Z,6.06
2023-01-10T12:48:49.264Z,6.16
2023-01-10T12:49:49.255Z,6.19
2023-01-10T12:50:49.248Z,6.28
2023-01-10T12:51:49.239Z,6.11
2023-01-10T12:52:49.252Z,5.99
2023-01-10T12:53:49.222Z,6.03
2023-01-10T12:54:49.213Z,5.96
2023-01-10T12:55:49.200Z,6.20
2023-01-10T12:56:49.221Z,6.16
2023-01-10T12:57:51.711Z,6.19
2023-01-10T12:58:50.182Z,6.24
2023-01-10T12:59:49.164Z,6.10
2023-01-10T13:00:49.165Z,6.17
2023-01-10T13:01:49.283Z,6.14
2023-01-10T13:02:49.227Z,6.14
2023-01-10T13:03:49.132Z,6.06
2023-01-10T13:04:49.110Z,6.10
2023-01-10T13:05:50.165Z,6.11
2023-01-10T13:06:49.114Z,6.01
2023-01-10T13:07:49.107Z,6.05
2023-01-10T13:08:49.112Z,5.98
2023-01-10T13:09:49.104Z,6.02
2023-01-10T13:10:49.071Z,6.02
2023-01-10T13:11:49.054Z,6.02
2023-01-10T13:12:49.076Z,6.02
2023-01-10T13:13:50.914Z,6.08
2023-01-10T13:14:50.029Z,6.13
2023-01-10T13:15:49.084Z,6.11
2023-01-10T13:16:49.023Z,6.03
2023-01-10T13:17:49.009Z,6.05
2023-01-10T13:18:49.038Z,6.03
2023-01-10T13:19:49.717Z,5.98
2023-01-10T13:20:49.985Z,5.99
2023-01-10T13:21:48.969Z,6.03
2023-01-10T13:22:48.983Z,6.03
2023-01-10T13:23:48.957Z,6.16
2023-01-10T13:24:48.941Z,6.05
2023-01-10T13:25:48.929Z,6.16
2023-01-10T13:26:48.923Z,6.02
2023-01-10T13:27:48.914Z,6.05
2023-01-10T13:28:48.921Z,6.03
2023-01-10T13:29:48.886Z,6.13
2023-01-10T13:30:48.941Z,6.05
2023-01-10T13:31:49.732Z,6.03
2023-01-10T13:32:49.870Z,5.93
2023-01-10T13:33:48.862Z,6.01
2023-01-10T13:34:48.843Z,5.95
2023-01-10T13:35:48.861Z,5.81
2023-01-10T13:36:48.820Z,5.85
2023-01-10T13:37:48.816Z,5.77